createdAt,value
2023-02-09T00:01:23.293Z,99965.09
2023-02-09T00:03:51.154Z,99962.63
2023-02-09T00:06:20.314Z,99960.28
2023-02-09T00:08:48.136Z,99966.03
2023-02-09T00:11:46.160Z,99958.09
2023-02-09T00:14:15.259Z,99960.69
2023-02-09T00:16:42.802Z,99955.75
2023-02-09T00:19:11.444Z,99951.88
2023-02-09T00:21:39.131Z,99947.06
2023-02-09T00:24:07.790Z,99951.47
2023-02-09T00:26:36.519Z,99951.44
2023-02-09T00:29:04.115Z,99945.66
2023-02-09T00:31:31.993Z,99944.06
2023-02-09T00:33:59.852Z,99945.63
2023-02-09T00:36:27.805Z,99943.91
2023-02-09T00:38:55.236Z,99940.41
2023-02-09T00:41:42.610Z,99936.28
2023-02-09T00:44:13.456Z,99938.84
2023-02-09T00:46:40.751Z,99943.75
2023-02-09T00:49:08.266Z,99945.28
2023-02-09T00:51:35.716Z,99943.41
2023-02-09T00:54:03.624Z,99944.81
2023-02-09T00:56:30.992Z,99927.81
2023-02-09T00:58:58.317Z,99931.38
2023-02-09T01:01:26.065Z,99928.69
2023-02-09T01:03:54.058Z,99931.25
2023-02-09T01:06:21.599Z,99936.34
2023-02-09T01:08:50.884Z,99919.78
2023-02-09T01:11:18.618Z,99925.94
2023-02-09T01:13:46.505Z,99924.34
2023-02-09T01:16:17.289Z,99932.69
2023-02-09T01:18:45.484Z,99931.69
2023-02-09T01:21:15.058Z,99932.22
2023-02-09T01:23:42.371Z,99932.97
2023-02-09T01:26:14.857Z,99937.09
2023-02-09T01:28:42.452Z,99933.19
2023-02-09T01:31:22.021Z,99930.50
2023-02-09T01:33:51.405Z,99926.81
2023-02-09T01:36:18.880Z,99931.13
2023-02-09T01:38:46.306Z,99925.78
2023-02-09T01:41:14.006Z,99920.47
2023-02-09T01:43:56.750Z,99917.03
2023-02-09T01:46:26.217Z,99911.81
2023-02-09T01:49:01.217Z,99917.78
2023-02-09T01:51:29.210Z,99917.78
2023-02-09T01:53:57.723Z,99916.38
2023-02-09T01:56:29.889Z,99914.28
2023-02-09T01:58:57.723Z,99909.88
2023-02-09T02:01:25.760Z,99905.50
2023-02-09T02:03:53.754Z,99904.81
2023-02-09T02:06:21.397Z,99905.66
2023-02-09T02:09:01.250Z,99890.16
2023-02-09T02:11:29.840Z,99889.19
2023-02-09T02:13:58.173Z,99889.53
2023-02-09T02:16:34.436Z,99890.22
2023-02-09T02:19:34.482Z,99889.25
2023-02-09T02:22:19.955Z,99885.75
2023-02-09T02:24:53.247Z,99888.31
2023-02-09T02:27:41.703Z,99885.72
2023-02-09T02:30:23.417Z,99876.53
2023-02-09T02:33:14.451Z,99877.13
2023-02-09T02:35:55.536Z,99881.22
2023-02-09T02:38:44.789Z,99889.72
2023-02-09T02:41:25.891Z,99888.03
2023-02-09T02:44:03.668Z,99892.06
2023-02-09T02:46:38.073Z,99883.34
2023-02-09T02:49:22.692Z,99869.91
2023-02-09T02:51:53.842Z,99866.22
2023-02-09T02:54:29.655Z,99869.16
2023-02-09T02:57:04.476Z,99867.19
2023-02-09T02:59:34.699Z,99866.06
2023-02-09T03:02:10.573Z,99862.44
2023-02-09T03:04:38.835Z,99861.13
2023-02-09T03:07:09.772Z,99872.03
2023-02-09T03:09:37.298Z,99862.75
2023-02-09T03:12:38.126Z,99874.94
2023-02-09T03:15:23.325Z,99882.47
2023-02-09T03:18:13.277Z,99879.09
2023-02-09T03:20:50.461Z,99881.44
2023-02-09T03:23:43.015Z,99878.16
2023-02-09T03:26:14.685Z,99893.16
2023-02-09T03:28:43.979Z,99890.53
2023-02-09T03:31:11.526Z,99888.38
2023-02-09T03:33:39.446Z,99888.09
2023-02-09T03:36:14.583Z,99886.97
2023-02-09T03:38:41.990Z,99880.94
2023-02-09T03:41:09.350Z,99882.53
2023-02-09T03:43:55.188Z,99891.06
2023-02-09T03:46:22.776Z,99885.09
2023-02-09T03:48:50.746Z,99888.78
2023-02-09T03:51:18.054Z,99894.69
2023-02-09T03:53:47.139Z,99887.19
2023-02-09T03:56:14.479Z,99892.25
2023-02-09T03:58:41.844Z,99893.16
2023-02-09T04:01:11.011Z,99892.25
2023-02-09T04:03:39.843Z,99889.66
2023-02-09T04:06:07.433Z,99894.78
2023-02-09T04:08:34.796Z,99899.81
2023-02-09T04:11:02.192Z,99898.09
2023-02-09T04:13:29.699Z,99895.75
2023-02-09T04:15:57.074Z,99892.25
2023-02-09T04:18:24.475Z,99892.19
2023-02-09T04:20:51.852Z,99894.22
2023-02-09T04:23:21.008Z,99896.53
2023-02-09T04:25:48.579Z,99895.38
2023-02-09T04:28:18.277Z,99897.63
2023-02-09T04:30:45.974Z,99907.53
2023-02-09T04:33:13.619Z,99907.47
2023-02-09T04:35:41.057Z,99912.50
2023-02-09T04:38:08.477Z,99909.81
2023-02-09T04:40:35.855Z,99907.59
2023-02-09T04:43:03.269Z,99908.31
2023-02-09T04:45:30.877Z,99900.00
2023-02-09T04:47:58.224Z,99894.06
2023-02-09T04:50:25.827Z,99890.81
2023-02-09T04:52:53.472Z,99893.97
2023-02-09T04:55:20.822Z,99904.97
2023-02-09T04:58:06.618Z,99908.38
2023-02-09T05:00:33.994Z,99907.38
2023-02-09T05:03:01.430Z,99906.25
2023-02-09T05:05:29.009Z,99902.84
2023-02-09T05:07:56.450Z,99899.31
2023-02-09T05:10:23.785Z,99901.81
2023-02-09T05:12:51.903Z,99897.41
2023-02-09T05:15:19.337Z,99897.56
2023-02-09T05:17:46.668Z,99885.56
2023-02-09T05:20:14.065Z,99892.03
2023-02-09T05:22:41.421Z,99885.94
2023-02-09T05:25:08.944Z,99887.16
2023-02-09T05:27:36.270Z,99882.56
2023-02-09T05:30:04.183Z,99879.13
2023-02-09T05:32:31.603Z,99877.31
2023-02-09T05:34:59.006Z,99874.00
2023-02-09T05:37:26.396Z,99875.50
2023-02-09T05:39:54.129Z,99871.16
2023-02-09T05:42:21.526Z,99865.59
2023-02-09T05:44:50.690Z,99863.91
2023-02-09T05:47:20.599Z,99858.16
2023-02-09T05:49:48.320Z,99857.63
2023-02-09T05:52:16.633Z,99860.31
2023-02-09T05:54:44.230Z,99859.38
2023-02-09T05:57:11.588Z,99857.94
2023-02-09T05:59:38.923Z,99862.69
2023-02-09T06:02:06.563Z,99873.47
2023-02-09T06:04:34.657Z,99865.66
2023-02-09T06:07:02.015Z,99866.38
2023-02-09T06:09:29.407Z,99869.75
2023-02-09T06:11:56.754Z,99868.63
2023-02-09T06:14:24.294Z,99883.84
2023-02-09T06:16:51.664Z,99889.63
2023-02-09T06:19:21.052Z,99884.75
2023-02-09T06:21:48.516Z,99885.66
2023-02-09T06:24:17.070Z,99888.22
2023-02-09T06:26:44.689Z,99891.84
2023-02-09T06:29:12.227Z,99891.66
2023-02-09T06:31:41.915Z,99889.09
2023-02-09T06:34:09.641Z,99884.94
2023-02-09T06:36:37.123Z,99900.72
2023-02-09T06:39:08.455Z,99910.88
2023-02-09T06:41:36.230Z,99914.13
2023-02-09T06:44:03.896Z,99919.22
2023-02-09T06:46:31.378Z,99914.97
2023-02-09T06:48:59.593Z,99913.13
2023-02-09T06:51:27.218Z,99920.75
2023-02-09T06:53:54.859Z,99930.19
2023-02-09T06:56:22.485Z,99928.56
2023-02-09T06:58:49.873Z,99924.69
2023-02-09T07:01:17.285Z,99925.72
2023-02-09T07:03:45.190Z,99929.75
2023-02-09T07:06:15.681Z,99925.66
2023-02-09T07:08:43.563Z,99932.50
2023-02-09T07:11:13.407Z,99938.50
2023-02-09T07:13:40.958Z,99936.63
2023-02-09T07:16:09.969Z,99949.06
2023-02-09T07:18:38.047Z,99948.19
2023-02-09T07:21:08.646Z,99944.78
2023-02-09T07:23:36.125Z,99947.63
2023-02-09T07:26:08.142Z,99942.88
2023-02-09T07:28:36.404Z,99951.50
2023-02-09T07:31:10.001Z,99955.13
2023-02-09T07:33:37.897Z,99947.22
2023-02-09T07:36:10.568Z,99937.44
2023-02-09T07:38:38.449Z,99945.25
2023-02-09T07:41:07.131Z,99950.91
2023-02-09T07:43:34.820Z,99941.00
2023-02-09T07:46:04.330Z,99942.19
2023-02-09T07:48:32.227Z,99936.44
2023-02-09T07:51:00.372Z,99938.53
2023-02-09T07:53:28.516Z,99939.56
2023-02-09T07:55:56.018Z,99943.25
2023-02-09T07:58:23.749Z,99945.09
2023-02-09T08:00:52.150Z,99940.91
2023-02-09T08:03:22.637Z,99951.22
2023-02-09T08:05:56.077Z,99958.84
2023-02-09T08:08:23.486Z,99962.25
2023-02-09T08:10:51.063Z,99965.81
2023-02-09T08:13:18.682Z,99959.84
2023-02-09T08:15:51.736Z,99957.91
2023-02-09T08:18:29.724Z,99975.91
2023-02-09T08:20:57.100Z,99974.97
2023-02-09T08:23:27.262Z,99977.72
2023-02-09T08:25:55.385Z,99972.38
2023-02-09T08:28:38.330Z,99966.94
2023-02-09T08:31:11.974Z,99974.84
2023-02-09T08:33:39.570Z,99970.03
2023-02-09T08:36:07.247Z,99959.59
2023-02-09T08:38:37.989Z,99971.09
2023-02-09T08:41:07.214Z,99957.66
2023-02-09T08:43:34.756Z,99955.16
2023-02-09T08:46:09.536Z,99960.28
2023-02-09T08:48:39.825Z,99949.31
2023-02-09T08:51:08.764Z,99957.44
2023-02-09T08:53:36.212Z,99960.00
2023-02-09T08:56:03.763Z,99962.13
2023-02-09T08:58:33.240Z,99968.97
2023-02-09T09:01:00.854Z,99965.41
2023-02-09T09:03:31.516Z,99962.00
2023-02-09T09:06:04.213Z,99963.22
2023-02-09T09:08:32.561Z,99956.06
2023-02-09T09:11:00.319Z,99965.03
2023-02-09T09:13:28.122Z,99972.41
2023-02-09T09:15:56.218Z,99969.28
2023-02-09T09:18:25.263Z,99957.78
2023-02-09T09:20:52.981Z,99967.50
2023-02-09T09:23:21.199Z,99975.94
2023-02-09T09:25:48.968Z,99975.28
2023-02-09T09:28:16.709Z,99964.00
2023-02-09T09:30:44.107Z,99961.09
2023-02-09T09:33:11.571Z,99969.03
2023-02-09T09:35:39.104Z,99971.78
2023-02-09T09:38:06.460Z,99966.44
2023-02-09T09:40:35.894Z,99967.22
2023-02-09T09:43:04.968Z,99972.31
2023-02-09T09:45:35.395Z,99972.09
2023-02-09T09:48:03.106Z,99973.19
2023-02-09T09:50:39.316Z,99980.16
2023-02-09T09:53:18.692Z,99974.22
2023-02-09T09:55:46.156Z,99979.19
2023-02-09T09:58:18.661Z,99976.47
2023-02-09T10:00:46.242Z,99982.53
2023-02-09T10:03:21.369Z,99986.16
2023-02-09T10:05:51.080Z,99981.38
2023-02-09T10:08:42.871Z,99980.16
2023-02-09T10:11:15.909Z,99988.91
2023-02-09T10:13:49.208Z,99987.72
2023-02-09T10:16:19.425Z,99971.97
2023-02-09T10:18:54.545Z,99969.72
2023-02-09T10:21:31.017Z,99977.66
2023-02-09T10:24:01.392Z,99968.34
2023-02-09T10:26:31.036Z,99968.00
2023-02-09T10:29:07.806Z,99972.81
2023-02-09T10:31:36.408Z,99978.72
2023-02-09T10:34:12.049Z,99970.16
2023-02-09T10:36:48.624Z,99963.38
2023-02-09T10:39:16.123Z,99964.81
2023-02-09T10:41:47.026Z,99966.00
2023-02-09T10:44:24.131Z,99982.16
2023-02-09T10:47:08.539Z,99959.97
2023-02-09T10:49:39.767Z,99958.00
2023-02-09T10:52:13.849Z,99954.28
2023-02-09T10:54:43.825Z,99953.16
2023-02-09T10:57:21.421Z,99943.06
2023-02-09T10:59:56.559Z,99945.13
2023-02-09T11:02:53.859Z,99944.09
2023-02-09T11:05:21.252Z,99946.69
2023-02-09T11:07:54.481Z,99946.06
2023-02-09T11:10:22.206Z,99934.00
2023-02-09T11:12:49.512Z,99930.63
2023-02-09T11:15:24.159Z,99924.56
2023-02-09T11:18:05.833Z,99931.47
2023-02-09T11:20:36.567Z,99924.69
2023-02-09T11:23:43.115Z,99924.72
2023-02-09T11:26:26.496Z,99912.75
2023-02-09T11:28:56.774Z,99913.72
2023-02-09T11:32:02.359Z,99906.53
2023-02-09T11:34:35.519Z,99916.50
2023-02-09T11:37:10.411Z,99902.13
2023-02-09T11:40:02.867Z,99887.56
2023-02-09T11:42:44.512Z,99884.03
2023-02-09T11:45:17.462Z,99879.31
2023-02-09T11:48:09.681Z,99877.91
2023-02-09T11:51:14.486Z,99871.34
2023-02-09T11:53:54.291Z,99875.34
2023-02-09T11:56:24.077Z,99869.69
2023-02-09T11:59:25.376Z,99873.31
2023-02-09T12:02:20.515Z,99860.63
2023-02-09T12:05:00.874Z,99864.50
2023-02-09T12:07:28.225Z,99862.06
2023-02-09T12:10:00.171Z,99865.13
2023-02-09T12:12:43.256Z,99864.41
2023-02-09T12:15:17.536Z,99858.47
2023-02-09T12:17:57.943Z,99857.50
2023-02-09T12:20:31.186Z,99852.00
2023-02-09T12:23:03.004Z,99847.72
2023-02-09T12:25:45.741Z,99849.38
2023-02-09T12:28:18.231Z,99845.78
2023-02-09T12:30:45.972Z,99846.63
2023-02-09T12:33:25.562Z,99849.38
2023-02-09T12:36:12.647Z,99847.69
2023-02-09T12:38:56.179Z,99847.59
2023-02-09T12:41:46.253Z,99835.72
2023-02-09T12:44:13.313Z,99843.13
2023-02-09T12:46:51.439Z,99848.50
2023-02-09T12:49:28.199Z,99847.91
2023-02-09T12:52:14.142Z,99845.28
2023-02-09T12:54:56.793Z,99838.06
2023-02-09T12:57:25.432Z,99835.44
2023-02-09T12:59:52.813Z,99838.69
2023-02-09T13:02:38.952Z,99838.78
2023-02-09T13:05:28.309Z,99835.00
2023-02-09T13:08:10.787Z,99841.13
2023-02-09T13:11:05.529Z,99837.69
2023-02-09T13:13:34.299Z,99843.59
2023-02-09T13:16:04.479Z,99838.34
2023-02-09T13:18:45.458Z,99833.06
2023-02-09T13:21:31.572Z,99836.19
2023-02-09T13:24:08.485Z,99823.81
2023-02-09T13:26:53.209Z,99829.66
2023-02-09T13:29:25.458Z,99837.84
2023-02-09T13:32:07.467Z,99834.81
2023-02-09T13:34:55.875Z,99833.00
2023-02-09T13:37:49.034Z,99832.78
2023-02-09T13:40:18.839Z,99829.78
2023-02-09T13:43:06.931Z,99840.66
2023-02-09T13:45:34.324Z,99836.66
2023-02-09T13:48:04.273Z,99848.63
2023-02-09T13:50:32.052Z,99851.75
2023-02-09T13:53:10.245Z,99853.88
2023-02-09T13:55:45.263Z,99852.63
2023-02-09T13:58:35.554Z,99845.88
2023-02-09T14:01:08.390Z,99845.34
2023-02-09T14:03:58.105Z,99850.09
2023-02-09T14:06:44.394Z,99851.25
2023-02-09T14:09:20.176Z,99845.78
2023-02-09T14:11:52.794Z,99847.78
2023-02-09T14:14:54.609Z,99842.69
2023-02-09T14:17:40.144Z,99848.34
2023-02-09T14:20:20.937Z,99857.28
2023-02-09T14:23:00.495Z,99870.44
2023-02-09T14:25:29.621Z,99867.97
2023-02-09T14:27:57.708Z,99867.59
2023-02-09T14:30:32.663Z,99874.75
2023-02-09T14:33:04.487Z,99886.84
2023-02-09T14:35:35.194Z,99881.75
2023-02-09T14:38:03.554Z,99882.97
2023-02-09T14:40:34.433Z,99891.16
2023-02-09T14:43:10.736Z,99888.16
2023-02-09T14:45:46.714Z,99887.84
2023-02-09T14:48:17.697Z,99898.81
2023-02-09T14:50:45.192Z,99896.91
2023-02-09T14:53:15.566Z,99898.72
2023-02-09T14:55:44.490Z,99897.88
2023-02-09T14:58:23.449Z,99896.50
2023-02-09T15:00:54.657Z,99898.25
2023-02-09T15:03:22.061Z,99906.91
2023-02-09T15:05:51.860Z,99896.41
2023-02-09T15:08:22.107Z,99905.66
2023-02-09T15:10:53.403Z,99902.97
2023-02-09T15:13:21.520Z,99906.72
2023-02-09T15:15:49.248Z,99910.41
2023-02-09T15:18:23.573Z,99905.41
2023-02-09T15:20:51.307Z,99907.31
2023-02-09T15:23:19.228Z,99909.53
2023-02-09T15:25:47.073Z,99906.41
2023-02-09T15:28:28.239Z,99902.66
2023-02-09T15:30:57.039Z,99909.03
2023-02-09T15:33:26.236Z,99913.31
2023-02-09T15:35:53.712Z,99914.34
2023-02-09T15:38:21.175Z,99925.78
2023-02-09T15:41:08.765Z,99917.88
2023-02-09T15:43:54.885Z,99919.50
2023-02-09T15:46:40.964Z,99926.78
2023-02-09T15:49:08.435Z,99926.34
2023-02-09T15:51:37.846Z,99938.84
2023-02-09T15:54:17.459Z,99948.31
2023-02-09T15:56:44.935Z,99941.84
2023-02-09T15:59:19.762Z,99941.06
2023-02-09T16:01:47.620Z,99948.91
2023-02-09T16:04:15.251Z,99949.22
2023-02-09T16:06:48.987Z,99954.44
2023-02-09T16:09:22.323Z,99944.41
2023-02-09T16:11:49.780Z,99953.19
2023-02-09T16:14:20.559Z,99952.63
2023-02-09T16:16:48.415Z,99957.00
2023-02-09T16:19:16.857Z,99963.06
2023-02-09T16:21:50.576Z,99963.53
2023-02-09T16:24:41.272Z,99966.28
2023-02-09T16:27:23.360Z,99959.47
2023-02-09T16:29:50.680Z,99964.09
2023-02-09T16:32:21.978Z,99973.19
2023-02-09T16:34:49.840Z,99978.69
2023-02-09T16:37:37.486Z,99978.03
2023-02-09T16:40:15.080Z,99982.63
2023-02-09T16:42:42.968Z,99977.59
2023-02-09T16:45:14.506Z,99981.16
2023-02-09T16:47:45.516Z,99988.19
2023-02-09T16:50:25.580Z,99985.66
2023-02-09T16:52:55.074Z,99982.28
2023-02-09T16:55:28.657Z,99985.03
2023-02-09T16:57:58.202Z,99986.06
2023-02-09T17:00:28.914Z,99986.16
2023-02-09T17:02:59.212Z,99990.63
2023-02-09T17:05:29.750Z,99997.69
2023-02-09T17:08:18.478Z,100004.75
2023-02-09T17:10:47.749Z,99998.75
2023-02-09T17:13:17.420Z,100002.28
2023-02-09T17:15:47.848Z,100002.03
2023-02-09T17:18:41.399Z,100010.56
2023-02-09T17:21:35.322Z,100010.59
2023-02-09T17:24:05.158Z,100016.66
2023-02-09T17:26:32.565Z,100013.97
2023-02-09T17:28:59.896Z,100023.88
2023-02-09T17:31:36.128Z,100028.16
2023-02-09T17:34:09.304Z,100024.63
2023-02-09T17:36:37.572Z,100036.03
2023-02-09T17:39:04.988Z,100038.63
2023-02-09T17:41:37.057Z,100039.59
2023-02-09T17:44:26.104Z,100037.19
2023-02-09T17:46:59.480Z,100033.03
2023-02-09T17:49:27.018Z,100022.72
2023-02-09T17:51:54.509Z,100022.72
2023-02-09T17:54:22.152Z,100026.22
2023-02-09T17:56:49.617Z,100027.94
2023-02-09T17:59:19.897Z,100027.13
2023-02-09T18:01:50.093Z,100035.78
2023-02-09T18:04:20.258Z,100027.97
2023-02-09T18:06:48.187Z,100021.94
2023-02-09T18:09:15.702Z,100031.44
2023-02-09T18:12:02.112Z,100029.72
2023-02-09T18:14:31.815Z,100035.75
2023-02-09T18:16:59.693Z,100029.72
2023-02-09T18:19:27.198Z,100025.34
2023-02-09T18:21:57.421Z,100031.41
2023-02-09T18:24:28.005Z,100034.88
2023-02-09T18:26:55.424Z,100031.41
2023-02-09T18:29:26.231Z,100040.97
2023-02-09T18:31:53.965Z,100045.28
2023-02-09T18:34:21.290Z,100042.72
2023-02-09T18:36:48.717Z,100050.47
2023-02-09T18:39:17.259Z,100054.78
2023-02-09T18:41:46.324Z,100058.25
2023-02-09T18:44:13.786Z,100059.97
2023-02-09T18:46:43.203Z,100065.16
2023-02-09T18:49:12.723Z,100065.13
2023-02-09T18:51:40.074Z,100060.78
2023-02-09T18:54:07.414Z,100071.16
2023-02-09T18:56:34.788Z,100071.16
2023-02-09T18:59:02.382Z,100085.81
2023-02-09T19:01:29.777Z,100091.84
2023-02-09T19:03:57.211Z,100088.41
2023-02-09T19:06:27.870Z,100086.72
2023-02-09T19:08:55.294Z,100084.09
2023-02-09T19:11:23.434Z,100088.47
2023-02-09T19:14:09.258Z,100093.56
2023-02-09T19:16:37.715Z,100098.69
2023-02-09T19:19:05.200Z,100093.50
2023-02-09T19:21:32.598Z,100098.59
2023-02-09T19:23:59.976Z,100095.22
2023-02-09T19:26:27.380Z,100100.34
2023-02-09T19:28:57.402Z,100096.00
2023-02-09T19:31:25.360Z,100104.59
2023-02-09T19:33:56.962Z,100098.56
2023-02-09T19:36:25.197Z,100094.25
2023-02-09T19:38:52.624Z,100095.94
2023-02-09T19:41:23.234Z,100098.50
2023-02-09T19:43:55.171Z,100091.63
2023-02-09T19:46:23.002Z,100083.03
2023-02-09T19:48:50.626Z,100085.63
2023-02-09T19:51:18.150Z,100083.03
2023-02-09T19:53:45.544Z,100084.69
2023-02-09T19:56:17.520Z,100083.03
2023-02-09T19:58:45.274Z,100096.75
2023-02-09T20:01:13.331Z,100082.19
2023-02-09T20:03:40.736Z,100096.72
2023-02-09T20:06:09.855Z,100101.03
2023-02-09T20:08:38.035Z,100107.00
2023-02-09T20:11:13.206Z,100103.47
2023-02-09T20:13:41.107Z,100106.06
2023-02-09T20:16:10.921Z,100112.88
2023-02-09T20:18:38.323Z,100113.75
2023-02-09T20:21:09.796Z,100115.53
2023-02-09T20:23:37.979Z,100100.78
2023-02-09T20:26:17.684Z,100101.81
2023-02-09T20:28:45.212Z,100107.03
2023-02-09T20:31:14.978Z,100105.28
2023-02-09T20:33:43.330Z,100110.34
2023-02-09T20:36:10.974Z,100109.28
2023-02-09T20:38:38.671Z,100106.72
2023-02-09T20:41:15.010Z,100110.09
2023-02-09T20:44:01.158Z,100110.09
2023-02-09T20:46:49.702Z,100115.28
2023-02-09T20:49:18.510Z,100125.38
2023-02-09T20:51:46.329Z,100135.59
2023-02-09T20:54:14.406Z,100135.53
2023-02-09T20:56:42.518Z,100135.50
2023-02-09T20:59:10.824Z,100132.00
2023-02-09T21:01:39.447Z,100131.94
2023-02-09T21:04:07.479Z,100133.88
2023-02-09T21:06:38.806Z,100144.50
2023-02-09T21:09:08.237Z,100145.03
2023-02-09T21:11:35.662Z,100148.38
2023-02-09T21:14:04.418Z,100145.72
2023-02-09T21:16:32.264Z,100144.00
2023-02-09T21:19:00.237Z,100141.28
2023-02-09T21:21:28.303Z,100139.47
2023-02-09T21:23:55.993Z,100134.28
2023-02-09T21:26:24.450Z,100146.22
2023-02-09T21:28:56.797Z,100151.31
2023-02-09T21:31:28.603Z,100147.03
2023-02-09T21:33:56.086Z,100152.28
2023-02-09T21:36:23.892Z,100140.25
2023-02-09T21:38:51.321Z,100141.22
2023-02-09T21:41:40.159Z,100148.13
2023-02-09T21:44:10.228Z,100156.63
2023-02-09T21:46:38.464Z,100165.06
2023-02-09T21:49:06.762Z,100169.53
2023-02-09T21:51:34.571Z,100166.88
2023-02-09T21:54:02.034Z,100169.22
2023-02-09T21:56:29.581Z,100167.53
2023-02-09T21:58:56.942Z,100164.34
2023-02-09T22:01:24.449Z,100158.81
2023-02-09T22:03:57.152Z,100157.81
2023-02-09T22:06:25.740Z,100165.19
2023-02-09T22:08:53.586Z,100176.91
2023-02-09T22:11:20.921Z,100174.28
2023-02-09T22:13:48.375Z,100181.88
2023-02-09T22:16:20.972Z,100186.91
2023-02-09T22:18:48.393Z,100194.56
2023-02-09T22:21:16.344Z,100191.91
2023-02-09T22:23:43.770Z,100193.97
2023-02-09T22:26:13.762Z,100197.47
2023-02-09T22:28:42.149Z,100185.09
2023-02-09T22:31:12.242Z,100192.03
2023-02-09T22:33:40.167Z,100200.44
2023-02-09T22:36:09.439Z,100201.47
2023-02-09T22:38:37.087Z,100210.03
2023-02-09T22:41:05.656Z,100208.56
2023-02-09T22:43:33.579Z,100214.50
2023-02-09T22:46:01.181Z,100216.56
2023-02-09T22:48:28.655Z,100216.41
2023-02-09T22:50:56.075Z,100220.03
2023-02-09T22:53:23.462Z,100223.09
2023-02-09T22:55:50.840Z,100225.66
2023-02-09T22:58:18.222Z,100218.53
2023-02-09T23:00:45.622Z,100217.59
2023-02-09T23:03:13.010Z,100213.16
2023-02-09T23:05:40.504Z,100214.78
2023-02-09T23:08:08.016Z,100212.19
2023-02-09T23:10:35.437Z,100212.13
2023-02-09T23:13:02.889Z,100230.94
2023-02-09T23:15:30.262Z,100235.22
2023-02-09T23:17:57.637Z,100231.72
2023-02-09T23:20:25.132Z,100231.50
2023-02-09T23:22:54.305Z,100237.03
2023-02-09T23:25:24.247Z,100232.78
2023-02-09T23:27:51.639Z,100226.72
2023-02-09T23:30:19.197Z,100234.41
2023-02-09T23:32:47.415Z,100233.44
2023-02-09T23:35:14.847Z,100231.75
2023-02-09T23:37:42.165Z,100228.56
2023-02-09T23:40:10.217Z,100232.50
2023-02-09T23:42:37.572Z,100240.94
2023-02-09T23:45:06.407Z,100241.69
2023-02-09T23:47:33.898Z,100241.53
2023-02-09T23:50:01.337Z,100236.00
2023-02-09T23:52:28.924Z,100234.94
2023-02-09T23:54:56.281Z,100243.25
2023-02-09T23:57:23.666Z,100244.03
2023-02-09T23:59:50.999Z,100238.06
